Terminal Aerodrome Forecast
Issued by NWS Grand Forks, ND

Home | Current Version | Previous Version | Text Only | Print | Product List | Glossary Off
Versions: 1 2 3 4 5 6 7 8 9 10 11 12 13 14

000
FTUS43 KFGF 242300
TAFFAR
TAF
KFAR 242334Z 2500/2524 01007KT 6SM BR OVC009
     FM250300 01009KT 4SM -SN BR OVC007
     FM251000 36007KT P6SM BKN020
     FM251900 VRB03KT P6SM BKN050
     FM252100 19005KT P6SM BKN100=

USA.gov is the U.S. government's official web portal to all federal, state and local government web resources and services.